Time;durP1;ratioP1;P1;durP2;ratioP2;P2;SDS_P1;SDS_P2;PMS_P1;PMS_P2;Temp;Humidity;BMP_temperature;BMP_pressure;BME280_temperature;BME280_humidity;BME280_pressure;Samples;Min_cycle;Max_cycle;Signal;HPM_P1;HPM_P2
2023/10/27 00:01:32;;;;;;;53.43;21.07;;;;;;;-148.15;100.00;61821.78;4972691;28;20058;-88
2023/10/27 00:04:00;;;;;;;52.20;20.13;;;;;;;-148.15;100.00;61821.78;4972252;28;20041;-88
2023/10/27 00:06:37;;;;;;;48.77;18.10;;;;;;;-148.15;100.00;61821.78;4970081;28;20387;-87
2023/10/27 00:09:31;;;;;;;52.43;20.43;;;;;;;-148.15;100.00;61821.78;4987573;28;20296;-88
2023/10/27 00:11:56;;;;;;;53.08;20.23;;;;;;;-148.15;100.00;61821.78;4969896;28;20039;-88
2023/10/27 00:14:22;;;;;;;51.07;20.27;;;;;;;-148.15;100.00;61821.78;4971374;28;20026;-88
2023/10/27 00:16:48;;;;;;;45.22;19.23;;;;;;;-148.15;100.00;61821.78;4972898;28;20359;-87
2023/10/27 00:19:14;;;;;;;51.05;20.77;;;;;;;-148.15;100.00;61821.78;4972224;28;20023;-87
2023/10/27 00:21:39;;;;;;;52.97;19.33;;;;;;;-148.15;100.00;61821.78;4971646;28;20035;-87
2023/10/27 00:24:05;;;;;;;51.07;20.10;;;;;;;-148.15;100.00;61821.78;4971521;28;20224;-87
2023/10/27 00:26:30;;;;;;;49.67;19.87;;;;;;;-148.15;100.00;61821.78;4970407;28;20031;-87
2023/10/27 00:28:55;;;;;;;49.53;19.25;;;;;;;-148.15;100.00;61821.78;4970639;28;20057;-87
2023/10/27 00:31:21;;;;;;;56.37;21.63;;;;;;;-148.15;100.00;61821.78;4972102;28;20113;-87
2023/10/27 00:33:48;;;;;;;48.40;19.07;;;;;;;-148.15;100.00;61821.78;4969419;28;20039;-87
2023/10/27 00:36:14;;;;;;;49.72;19.73;;;;;;;-148.15;100.00;61821.78;4970236;28;20113;-87
2023/10/27 00:38:39;;;;;;;47.63;19.27;;;;;;;-148.15;100.00;61821.78;4972111;28;20621;-87
2023/10/27 00:41:04;;;;;;;43.00;18.73;;;;;;;-148.15;100.00;61821.78;4970437;28;20030;-86
2023/10/27 00:43:30;;;;;;;48.17;18.97;;;;;;;-148.15;100.00;61821.78;4972970;28;20023;-87
2023/10/27 00:45:55;;;;;;;49.17;19.73;;;;;;;-148.15;100.00;61821.78;4970695;28;20049;-86
2023/10/27 00:48:23;;;;;;;49.83;18.90;;;;;;;-148.15;100.00;61821.78;4971113;28;20114;-87
2023/10/27 00:50:49;;;;;;;49.38;18.13;;;;;;;-148.15;100.00;61821.78;4971341;28;20030;-87
2023/10/27 00:53:56;;;;;;;48.00;19.17;;;;;;;-148.15;100.00;61821.78;4973487;28;20070;-86
2023/10/27 00:56:21;;;;;;;46.85;18.48;;;;;;;-148.15;100.00;61821.78;4938529;29;20050;-88
2023/10/27 00:59:06;;;;;;;45.57;18.23;;;;;;;-148.15;100.00;61821.78;4972742;28;20046;-87
2023/10/27 01:01:56;;;;;;;;;;;;;;;;;;;;;
2023/10/27 01:04:22;;;;;;;43.67;17.67;;;;;;;-148.15;100.00;61821.78;4970788;28;20364;-87
2023/10/27 01:06:55;;;;;;;43.30;17.73;;;;;;;-148.15;100.00;61821.78;4969785;28;20022;-86
2023/10/27 01:09:33;;;;;;;45.88;17.85;;;;;;;-148.15;100.00;61821.78;4970136;28;20350;-87
2023/10/27 01:12:07;;;;;;;44.03;17.77;;;;;;;-148.15;100.00;61821.78;4971783;28;20036;-87
2023/10/27 01:14:39;;;;;;;48.13;19.63;;;;;;;-148.15;100.00;61821.78;4969594;28;20042;-87
2023/10/27 01:17:04;;;;;;;46.65;18.33;;;;;;;-148.15;100.00;61821.78;4970574;28;20022;-87
2023/10/27 01:19:29;;;;;;;51.13;19.07;;;;;;;-148.15;100.00;61821.78;4971369;28;20039;-87
2023/10/27 01:21:55;;;;;;;54.08;19.35;;;;;;;-148.15;100.00;61821.78;4970927;28;20100;-87
2023/10/27 01:24:22;;;;;;;44.20;17.83;;;;;;;-148.15;100.00;61821.78;4970479;28;20117;-87
2023/10/27 01:26:47;;;;;;;42.63;17.98;;;;;;;-148.15;100.00;61821.78;4971161;28;20034;-87
2023/10/27 01:29:13;;;;;;;48.20;18.63;;;;;;;-148.15;100.00;61821.78;4970631;28;20149;-86
2023/10/27 01:31:41;;;;;;;48.10;17.90;;;;;;;-148.15;100.00;61821.78;5014672;23;20058;-87
2023/10/27 01:34:12;;;;;;;47.92;17.88;;;;;;;-148.15;100.00;61821.78;4988898;28;20037;-89
2023/10/27 01:36:47;;;;;;;42.05;17.63;;;;;;;-148.15;100.00;61821.78;4990363;28;20026;-89
2023/10/27 01:39:13;;;;;;;44.50;17.80;;;;;;;-148.15;100.00;61821.78;4988967;28;20030;-89
2023/10/27 01:41:41;;;;;;;48.90;17.53;;;;;;;-148.15;100.00;61821.78;4987793;28;20096;-88
2023/10/27 01:44:08;;;;;;;44.50;17.38;;;;;;;-148.15;100.00;61821.78;4987403;28;20154;-89
2023/10/27 01:46:42;;;;;;;38.22;17.02;;;;;;;-148.15;100.00;61821.78;4988635;28;20062;-89
2023/10/27 01:49:19;;;;;;;48.38;17.90;;;;;;;-148.15;100.00;61821.78;4986975;28;20046;-88
2023/10/27 01:55:58;;;;;;;45.58;18.48;;;;;;;-148.15;100.00;61821.78;4979692;28;20045;-88
2023/10/27 01:58:45;;;;;;;41.47;17.92;;;;;;;-148.15;100.00;61821.78;4988698;28;20470;-87
2023/10/27 02:05:02;;;;;;;42.67;15.52;;;;;;;-148.15;100.00;61821.78;4968012;28;20102;-87
2023/10/27 02:10:58;;;;;;;43.47;16.27;;;;;;;-148.15;100.00;61821.78;4954029;28;20078;-87
2023/10/27 02:13:27;;;;;;;42.58;16.17;;;;;;;-148.15;100.00;61821.78;4967235;28;20023;-87
2023/10/27 02:36:40;;;;;;;32.15;13.00;;;;;;;-148.15;100.00;61821.78;4978340;23;20182;-88
2023/10/27 02:39:23;;;;;;;38.43;13.83;;;;;;;-148.15;100.00;61821.78;4969302;28;20067;-87
2023/10/27 02:41:49;;;;;;;31.80;13.57;;;;;;;-148.15;100.00;61821.78;4972702;28;20681;-88
2023/10/27 02:44:36;;;;;;;40.45;14.25;;;;;;;-148.15;100.00;61821.78;4972642;28;20035;-88
2023/10/27 02:47:51;;;;;;;38.00;13.20;;;;;;;-148.15;100.00;61821.78;4973069;28;20042;-87
2023/10/27 02:53:38;;;;;;;36.80;12.65;;;;;;;-148.15;100.00;61821.78;4977548;28;20078;-88
2023/10/27 02:56:08;;;;;;;32.38;12.07;;;;;;;-148.15;100.00;61821.78;4975436;28;20034;-88
2023/10/27 02:58:42;;;;;;;37.83;13.07;;;;;;;-148.15;100.00;61821.78;4991676;28;20030;-87
2023/10/27 03:04:06;;;;;;;34.00;12.63;;;;;;;-148.15;100.00;61821.78;4993547;28;20104;-87
2023/10/27 03:06:31;;;;;;;32.53;12.37;;;;;;;-148.15;100.00;61821.78;4991347;28;20879;-87
2023/10/27 03:16:19;;;;;;;34.90;11.77;;;;;;;-148.15;100.00;61821.78;4975322;28;20049;-88
2023/10/27 03:18:44;;;;;;;26.45;11.45;;;;;;;-148.15;100.00;61821.78;4975558;28;20481;-87
2023/10/27 03:21:28;;;;;;;35.60;12.30;;;;;;;-148.15;100.00;61821.78;4975561;28;20038;-87
2023/10/27 03:24:18;;;;;;;31.33;10.75;;;;;;;-148.15;100.00;61821.78;4943476;28;20053;-88
2023/10/27 03:27:15;;;;;;;31.63;11.82;;;;;;;-148.15;100.00;61821.78;4984405;28;20046;-87
2023/10/27 03:30:57;;;;;;;30.45;10.93;;;;;;;-148.15;100.00;61821.78;4990787;28;20485;-87
2023/10/27 03:33:23;;;;;;;33.00;10.73;;;;;;;-148.15;100.00;61821.78;4979482;28;20038;-87
2023/10/27 03:39:20;;;;;;;32.40;10.37;;;;;;;-148.15;100.00;61821.78;4991844;28;20285;-88
2023/10/27 03:42:15;;;;;;;26.27;11.07;;;;;;;-148.15;100.00;61821.78;4975030;28;20072;-88
2023/10/27 03:45:14;;;;;;;31.10;11.02;;;;;;;-148.15;100.00;61821.78;4958350;28;20069;-88
2023/10/27 03:47:39;;;;;;;25.80;10.13;;;;;;;-148.15;100.00;61821.78;4974099;28;20026;-88
2023/10/27 03:50:40;;;;;;;33.20;11.20;;;;;;;-148.15;100.00;61821.78;4985293;28;20162;-88
2023/10/27 03:56:36;;;;;;;25.95;10.57;;;;;;;-148.15;100.00;61821.78;4894887;29;20457;-88
2023/10/27 04:01:29;;;;;;;29.90;10.05;;;;;;;-148.15;100.00;61821.78;4991926;28;20367;-88
2023/10/27 04:03:57;;;;;;;31.23;10.47;;;;;;;-148.15;100.00;61821.78;4996283;28;20030;-88
2023/10/27 04:06:24;;;;;;;26.23;9.60;;;;;;;-148.15;100.00;61821.78;4992831;28;20619;-88
2023/10/27 04:15:37;;;;;;;29.23;9.48;;;;;;;-148.15;100.00;61821.78;5003870;28;20061;-87
2023/10/27 04:18:30;;;;;;;23.48;10.05;;;;;;;-148.15;100.00;61821.78;4995005;28;20083;-89
2023/10/27 04:20:59;;;;;;;28.07;10.30;;;;;;;-148.15;100.00;61821.78;5007769;28;20041;-88
2023/10/27 04:26:46;;;;;;;28.30;9.93;;;;;;;-148.15;100.00;61821.78;5007799;28;20193;-87
2023/10/27 04:31:53;;;;;;;27.77;9.50;;;;;;;-148.15;100.00;61821.78;4991827;28;20054;-87
2023/10/27 04:34:20;;;;;;;24.65;9.45;;;;;;;-148.15;100.00;61821.78;4999074;28;20026;-85
2023/10/27 04:36:45;;;;;;;26.20;9.63;;;;;;;-148.15;100.00;61821.78;4992228;28;20106;-84
2023/10/27 04:39:10;;;;;;;23.63;9.60;;;;;;;-148.15;100.00;61821.78;4973609;28;20121;-85
2023/10/27 04:41:36;;;;;;;25.97;10.00;;;;;;;-148.15;100.00;61821.78;4990258;28;20030;-87
2023/10/27 04:44:01;;;;;;;22.17;9.57;;;;;;;-148.15;100.00;61821.78;4990950;28;20062;-87
2023/10/27 04:46:27;;;;;;;23.50;9.33;;;;;;;-148.15;100.00;61821.78;4972469;28;20026;-87
2023/10/27 04:48:52;;;;;;;22.03;9.60;;;;;;;-148.15;100.00;61821.78;4968323;28;20409;-87
2023/10/27 04:51:17;;;;;;;29.90;10.07;;;;;;;-148.15;100.00;61821.78;4974593;28;20065;-87
2023/10/27 04:53:43;;;;;;;20.63;8.88;;;;;;;-148.15;100.00;61821.78;4991422;28;20474;-87
2023/10/27 04:56:08;;;;;;;24.20;8.70;;;;;;;-148.15;100.00;61821.78;4972688;28;20025;-87
2023/10/27 04:58:33;;;;;;;23.20;8.83;;;;;;;-148.15;100.00;61821.78;4991720;28;20453;-87
2023/10/27 05:00:59;;;;;;;25.00;8.80;;;;;;;-148.15;100.00;61821.78;4991479;28;20038;-88
2023/10/27 05:03:24;;;;;;;26.27;8.90;;;;;;;-148.15;100.00;61821.78;4973081;28;20120;-88
2023/10/27 05:05:50;;;;;;;26.00;8.95;;;;;;;-148.15;100.00;61821.78;4991669;28;20030;-88
2023/10/27 05:08:15;;;;;;;21.40;8.90;;;;;;;-148.15;100.00;61821.78;4989501;28;20029;-87
2023/10/27 05:10:40;;;;;;;17.40;8.63;;;;;;;-148.15;100.00;61821.78;4991650;28;20049;-89
2023/10/27 05:13:08;;;;;;;20.00;8.67;;;;;;;-148.15;100.00;61821.78;4990947;28;20026;-91
2023/10/27 05:15:38;;;;;;;20.73;8.73;;;;;;;-148.15;100.00;61821.78;4971085;28;20117;-91
2023/10/27 05:20:50;;;;;;;26.67;9.02;;;;;;;-148.15;100.00;61821.78;5025674;23;20047;-89
2023/10/27 05:23:21;;;;;;;18.93;8.00;;;;;;;-148.15;100.00;61821.78;4950882;29;20073;-91
2023/10/27 05:25:49;;;;;;;27.95;9.20;;;;;;;-148.15;100.00;61821.78;4943751;29;20039;-91
2023/10/27 05:28:14;;;;;;;22.50;9.30;;;;;;;-148.15;100.00;61821.78;4951327;28;20570;-91
2023/10/27 05:30:43;;;;;;;19.87;8.50;;;;;;;-148.15;100.00;61821.78;4952622;28;20122;-91
2023/10/27 05:33:09;;;;;;;21.15;9.05;;;;;;;-148.15;100.00;61821.78;4950222;28;20031;-91
2023/10/27 05:41:48;;;;;;;22.00;9.18;;;;;;;-148.15;100.00;61821.78;1415132;26;20060;-88
2023/10/27 05:50:39;;;;;;;22.48;9.65;;;;;;;-148.15;100.00;61821.78;4998762;23;20091;-90
2023/10/27 05:53:05;;;;;;;24.10;9.53;;;;;;;-148.15;100.00;61821.78;4971190;28;20068;-91
2023/10/27 05:58:58;;;;;;;28.57;9.47;;;;;;;-148.15;100.00;61821.78;4971140;28;20041;-90
2023/10/27 06:05:00;;;;;;;25.05;9.88;;;;;;;-148.15;100.00;61821.78;4928311;28;20066;-92
2023/10/27 06:07:26;;;;;;;23.73;9.87;;;;;;;-148.15;100.00;61821.78;4976520;28;20471;-90
2023/10/27 06:10:05;;;;;;;29.65;9.75;;;;;;;-148.15;100.00;61821.78;4979146;28;20030;-89
2023/10/27 06:12:30;;;;;;;18.67;9.45;;;;;;;-148.15;100.00;61821.78;4973418;28;20037;-89
2023/10/27 06:14:56;;;;;;;29.50;10.63;;;;;;;-148.15;100.00;61821.78;4972267;28;20034;-89
2023/10/27 06:17:21;;;;;;;25.27;9.33;;;;;;;-148.15;100.00;61821.78;4975803;28;20039;-88
2023/10/27 06:19:46;;;;;;;26.02;10.07;;;;;;;-148.15;100.00;61821.78;4975227;28;20046;-89
2023/10/27 06:22:12;;;;;;;20.27;10.00;;;;;;;-148.15;100.00;61821.78;4972906;28;20409;-88
2023/10/27 06:24:43;;;;;;;26.73;10.00;;;;;;;-148.15;100.00;61821.78;4974403;28;20601;-90
2023/10/27 06:27:09;;;;;;;28.45;10.80;;;;;;;-148.15;100.00;61821.78;4974727;28;20434;-89
2023/10/27 06:29:37;;;;;;;27.33;10.07;;;;;;;-148.15;100.00;61821.78;4974144;28;20035;-89
2023/10/27 06:32:11;;;;;;;22.15;9.63;;;;;;;-148.15;100.00;61821.78;4971407;28;20042;-88
2023/10/27 06:34:37;;;;;;;23.00;8.85;;;;;;;-148.15;100.00;61821.78;4967682;28;20027;-88
2023/10/27 06:37:19;;;;;;;25.10;9.77;;;;;;;-148.15;100.00;61821.78;4954908;29;20050;-88
2023/10/27 06:39:44;;;;;;;23.23;9.57;;;;;;;-148.15;100.00;61821.78;4971834;23;20046;-90
2023/10/27 06:42:12;;;;;;;27.53;9.63;;;;;;;-148.15;100.00;61821.78;4981413;28;20324;-89
2023/10/27 06:44:37;;;;;;;31.30;9.45;;;;;;;-148.15;100.00;61821.78;4974581;28;20126;-88
2023/10/27 06:47:05;;;;;;;22.97;10.03;;;;;;;-148.15;100.00;61821.78;4974333;28;20050;-88
2023/10/27 06:49:31;;;;;;;33.20;9.30;;;;;;;-148.15;100.00;61821.78;4973964;28;20650;-88
2023/10/27 06:51:56;;;;;;;23.50;9.37;;;;;;;-148.15;100.00;61821.78;4974091;28;20054;-85
2023/10/27 06:54:21;;;;;;;19.07;8.97;;;;;;;-148.15;100.00;61821.78;4973548;28;20026;-85
2023/10/27 06:56:47;;;;;;;15.70;8.23;;;;;;;-148.15;100.00;61821.78;4972958;28;20105;-84
2023/10/27 06:59:12;;;;;;;16.00;8.60;;;;;;;-148.15;100.00;61821.78;4972924;28;20019;-82
2023/10/27 07:01:37;;;;;;;20.97;8.00;;;;;;;-148.15;100.00;61821.78;4974275;28;20019;-83
2023/10/27 07:04:03;;;;;;;15.07;7.50;;;;;;;-148.15;100.00;61821.78;4971806;28;20306;-84
2023/10/27 07:06:28;;;;;;;19.43;8.10;;;;;;;-148.15;100.00;61821.78;4969828;28;20039;-82
2023/10/27 07:08:54;;;;;;;17.93;8.33;;;;;;;-148.15;100.00;61821.78;4973807;28;20093;-82
2023/10/27 07:11:19;;;;;;;16.73;8.77;;;;;;;-148.15;100.00;61821.78;4974176;28;20422;-83
2023/10/27 07:13:44;;;;;;;14.68;7.90;;;;;;;-148.15;100.00;61821.78;4971890;28;20531;-82
2023/10/27 07:16:10;;;;;;;16.17;8.27;;;;;;;-148.15;100.00;61821.78;4971781;28;20472;-85
2023/10/27 07:18:35;;;;;;;13.30;7.47;;;;;;;-148.15;100.00;61821.78;4969284;28;20046;-85
2023/10/27 07:21:04;;;;;;;16.07;7.30;;;;;;;-148.15;100.00;61821.78;4954273;28;20123;-83
2023/10/27 07:23:30;;;;;;;15.68;7.90;;;;;;;-148.15;100.00;61821.78;4987067;28;20097;-82
2023/10/27 07:25:56;;;;;;;12.57;7.18;;;;;;;-148.15;100.00;61821.78;4969504;28;20027;-83
2023/10/27 07:28:21;;;;;;;14.60;7.63;;;;;;;-148.15;100.00;61821.78;4968848;28;20045;-82
2023/10/27 07:30:46;;;;;;;17.87;8.70;;;;;;;-148.15;100.00;61821.78;4973405;28;20486;-83
2023/10/27 07:33:13;;;;;;;16.07;7.80;;;;;;;-148.15;100.00;61821.78;4972199;28;20034;-83
2023/10/27 07:35:38;;;;;;;16.38;9.02;;;;;;;-148.15;100.00;61821.78;4968013;28;20023;-83
2023/10/27 07:38:04;;;;;;;18.27;8.60;;;;;;;-148.15;100.00;61821.78;4972646;28;20722;-82
2023/10/27 07:40:30;;;;;;;14.93;8.13;;;;;;;-148.15;100.00;61821.78;4965078;28;20033;-82
2023/10/27 07:42:57;;;;;;;17.85;8.18;;;;;;;-148.15;100.00;61821.78;4962199;28;20034;-83
2023/10/27 07:45:24;;;;;;;15.35;7.72;;;;;;;-148.15;100.00;61821.78;4966398;28;20388;-83
2023/10/27 07:47:49;;;;;;;13.35;7.93;;;;;;;-148.15;100.00;61821.78;4970797;28;20583;-83
2023/10/27 07:50:15;;;;;;;16.23;7.80;;;;;;;-148.15;100.00;61821.78;4972302;28;20126;-84
2023/10/27 07:52:40;;;;;;;14.40;7.33;;;;;;;-148.15;100.00;61821.78;4971076;28;20034;-84
2023/10/27 07:55:06;;;;;;;14.23;7.07;;;;;;;-148.15;100.00;61821.78;4972005;28;20058;-84
2023/10/27 07:57:34;;;;;;;12.43;7.17;;;;;;;-148.15;100.00;61821.78;4970704;28;20039;-84
2023/10/27 07:59:59;;;;;;;12.40;7.00;;;;;;;-148.15;100.00;61821.78;4973141;28;20031;-83
2023/10/27 08:02:24;;;;;;;16.77;8.13;;;;;;;-148.15;100.00;61821.78;4972037;28;20513;-84
2023/10/27 08:04:50;;;;;;;21.38;8.45;;;;;;;-148.15;100.00;61821.78;4972419;28;20288;-84
2023/10/27 08:07:15;;;;;;;14.07;8.03;;;;;;;-148.15;100.00;61821.78;4972020;28;20495;-84
2023/10/27 08:09:41;;;;;;;14.53;8.77;;;;;;;-148.15;100.00;61821.78;4972564;28;20529;-84
2023/10/27 08:12:08;;;;;;;16.93;8.93;;;;;;;-148.15;100.00;61821.78;4971336;28;20031;-84
2023/10/27 08:14:33;;;;;;;15.38;9.10;;;;;;;-148.15;100.00;61821.78;4972326;28;20041;-84
2023/10/27 08:16:58;;;;;;;21.60;9.63;;;;;;;-148.15;100.00;61821.78;4972230;28;20050;-84
2023/10/27 08:19:24;;;;;;;17.60;9.53;;;;;;;-148.15;100.00;61821.78;4973014;28;20289;-83
2023/10/27 08:21:49;;;;;;;17.63;9.47;;;;;;;-148.15;100.00;61821.78;4971980;28;20023;-84
2023/10/27 08:24:16;;;;;;;18.70;9.27;;;;;;;-148.15;100.00;61821.78;4972370;28;20034;-84
2023/10/27 08:26:41;;;;;;;16.48;8.50;;;;;;;-148.15;100.00;61821.78;4971991;28;20031;-84
2023/10/27 08:29:06;;;;;;;15.37;8.50;;;;;;;-148.15;100.00;61821.78;4971547;28;20082;-84
2023/10/27 08:31:32;;;;;;;18.27;8.57;;;;;;;-148.15;100.00;61821.78;4970130;28;20129;-83
2023/10/27 08:34:00;;;;;;;14.77;8.50;;;;;;;-148.15;100.00;61821.78;4971202;28;20026;-84
2023/10/27 08:36:27;;;;;;;25.37;8.83;;;;;;;-148.15;100.00;61821.78;4971890;28;20498;-84
2023/10/27 08:38:56;;;;;;;23.07;8.57;;;;;;;-148.15;100.00;61821.78;4971943;28;20777;-84
2023/10/27 08:41:25;;;;;;;17.85;8.00;;;;;;;-148.15;100.00;61821.78;4972359;28;20656;-84
2023/10/27 08:43:52;;;;;;;13.25;7.68;;;;;;;-148.15;100.00;61821.78;4969681;28;20493;-84
2023/10/27 08:46:17;;;;;;;13.70;7.65;;;;;;;-148.15;100.00;61821.78;4970312;28;20398;-84
2023/10/27 08:48:43;;;;;;;12.83;7.93;;;;;;;-148.15;100.00;61821.78;4972257;28;20023;-84
2023/10/27 08:51:09;;;;;;;19.43;8.30;;;;;;;-148.15;100.00;61821.78;4970761;28;20062;-84
2023/10/27 08:53:42;;;;;;;10.70;7.20;;;;;;;-148.15;100.00;61821.78;4970834;28;20027;-84
2023/10/27 08:56:12;;;;;;;13.80;8.00;;;;;;;-148.15;100.00;61821.78;4970837;28;20042;-84
2023/10/27 08:58:47;;;;;;;11.88;6.88;;;;;;;-148.15;100.00;61821.78;4972290;28;20676;-84
2023/10/27 09:01:13;;;;;;;12.00;7.28;;;;;;;-148.15;100.00;61821.78;4971861;28;20113;-84
2023/10/27 09:03:39;;;;;;;13.93;6.80;;;;;;;-148.15;100.00;61821.78;4969503;28;20042;-84
2023/10/27 09:06:04;;;;;;;12.88;7.28;;;;;;;-148.15;100.00;61821.78;4974356;28;20034;-84
2023/10/27 09:08:29;;;;;;;13.53;7.70;;;;;;;-148.15;100.00;61821.78;4970937;28;20486;-84
2023/10/27 09:10:55;;;;;;;13.83;7.30;;;;;;;-148.15;100.00;61821.78;4971516;28;20031;-85
2023/10/27 09:13:21;;;;;;;14.10;6.88;;;;;;;-148.15;100.00;61821.78;4969889;28;20023;-84
2023/10/27 09:15:46;;;;;;;12.67;7.23;;;;;;;-148.15;100.00;61821.78;4970830;28;20129;-84
2023/10/27 09:18:15;;;;;;;12.57;6.90;;;;;;;-148.15;100.00;61821.78;4971141;28;20384;-84
2023/10/27 09:20:48;;;;;;;12.23;6.88;;;;;;;-148.15;100.00;61821.78;4969763;28;20470;-86
2023/10/27 09:23:13;;;;;;;11.40;6.80;;;;;;;-148.15;100.00;61821.78;4969835;28;20118;-87
2023/10/27 09:25:39;;;;;;;10.35;6.65;;;;;;;-148.15;100.00;61821.78;4971473;28;20118;-87
2023/10/27 09:28:05;;;;;;;15.30;7.47;;;;;;;-148.15;100.00;61821.78;4971236;28;20030;-87
2023/10/27 09:30:37;;;;;;;21.52;7.18;;;;;;;-148.15;100.00;61821.78;4970188;28;20784;-86
2023/10/27 09:33:15;;;;;;;15.87;6.70;;;;;;;-148.15;100.00;61821.78;4969952;28;20035;-86
2023/10/27 09:35:41;;;;;;;12.97;7.50;;;;;;;-148.15;100.00;61821.78;4969337;28;20884;-86
2023/10/27 09:38:08;;;;;;;14.50;7.75;;;;;;;-148.15;100.00;61821.78;4971872;28;20031;-86
2023/10/27 09:40:37;;;;;;;14.85;7.60;;;;;;;-148.15;100.00;61821.78;4970907;28;20026;-86
2023/10/27 09:43:04;;;;;;;16.20;7.68;;;;;;;-148.15;100.00;61821.78;4970090;28;20117;-86
2023/10/27 09:45:33;;;;;;;17.27;7.20;;;;;;;-148.15;100.00;61821.78;4970643;28;20038;-86
2023/10/27 09:48:03;;;;;;;16.57;7.80;;;;;;;-148.15;100.00;61821.78;4971210;28;20662;-87
2023/10/27 09:50:30;;;;;;;16.20;8.40;;;;;;;-148.15;100.00;61821.78;4971344;28;20114;-86
2023/10/27 09:53:02;;;;;;;15.88;8.25;;;;;;;-148.15;100.00;61821.78;4980745;28;20110;-84
2023/10/27 09:55:29;;;;;;;17.20;8.10;;;;;;;-148.15;100.00;61821.78;4970901;28;20050;-84
2023/10/27 09:57:55;;;;;;;17.45;7.68;;;;;;;-148.15;100.00;61821.78;4971006;28;20105;-84
2023/10/27 10:00:23;;;;;;;16.83;8.67;;;;;;;-148.15;100.00;61821.78;4971599;28;20462;-84
2023/10/27 10:02:49;;;;;;;19.95;8.40;;;;;;;-148.15;100.00;61821.78;4969533;28;20081;-84
2023/10/27 10:05:14;;;;;;;18.17;8.82;;;;;;;-148.15;100.00;61821.78;4970205;28;20034;-84
2023/10/27 10:07:44;;;;;;;18.07;8.60;;;;;;;-148.15;100.00;61821.78;4971241;28;20438;-84
2023/10/27 10:10:37;;;;;;;22.38;8.27;;;;;;;-148.15;100.00;61821.78;4969824;28;20062;-84
2023/10/27 10:13:16;;;;;;;21.48;8.70;;;;;;;-148.15;100.00;61821.78;4969979;28;20037;-83
2023/10/27 10:15:42;;;;;;;14.75;7.95;;;;;;;-148.15;100.00;61821.78;4968531;28;20030;-83
2023/10/27 10:18:33;;;;;;;14.80;7.53;;;;;;;-148.15;100.00;61821.78;4978184;28;20035;-83
2023/10/27 10:20:59;;;;;;;13.93;6.40;;;;;;;-148.15;100.00;61821.78;4969727;28;20294;-81
2023/10/27 10:23:37;;;;;;;10.90;5.70;;;;;;;-148.15;100.00;61821.78;4968293;28;20166;-82
2023/10/27 10:26:03;;;;;;;10.68;5.25;;;;;;;-148.15;100.00;61821.78;4969364;28;20034;-82
2023/10/27 10:28:40;;;;;;;10.15;4.97;;;;;;;-148.15;100.00;61821.78;4970688;28;20470;-87
2023/10/27 10:31:17;;;;;;;9.27;5.60;;;;;;;-148.15;100.00;61821.78;4971011;28;20030;-85
2023/10/27 10:33:48;;;;;;;10.57;5.20;;;;;;;-148.15;100.00;61821.78;4967801;28;20313;-85
2023/10/27 10:36:22;;;;;;;12.70;6.67;;;;;;;-148.15;100.00;61821.78;4970749;28;20114;-85
2023/10/27 10:38:53;;;;;;;14.35;6.95;;;;;;;-148.15;100.00;61821.78;4970182;28;20034;-86
2023/10/27 10:41:19;;;;;;;16.35;7.38;;;;;;;-148.15;100.00;61821.78;4969272;28;20035;-84
2023/10/27 10:43:45;;;;;;;18.38;7.68;;;;;;;-148.15;100.00;61821.78;4968632;28;20384;-86
2023/10/27 10:46:12;;;;;;;21.93;9.33;;;;;;;-148.15;100.00;61821.78;4964422;28;20023;-84
2023/10/27 10:48:45;;;;;;;20.13;9.57;;;;;;;-148.15;100.00;61821.78;4966576;28;20043;-84
2023/10/27 10:51:18;;;;;;;18.23;9.57;;;;;;;-148.15;100.00;61821.78;4970536;28;20026;-85
2023/10/27 10:53:50;;;;;;;23.05;10.18;;;;;;;-148.15;100.00;61821.78;4968365;28;20030;-85
2023/10/27 10:56:16;;;;;;;21.10;10.23;;;;;;;-148.15;100.00;61821.78;4970586;28;20034;-84
2023/10/27 10:58:42;;;;;;;22.13;10.03;;;;;;;-148.15;100.00;61821.78;4969389;28;20282;-84
2023/10/27 11:01:20;;;;;;;27.23;11.32;;;;;;;-148.15;100.00;61821.78;4968049;28;20023;-84
2023/10/27 11:03:54;;;;;;;27.90;12.13;;;;;;;-148.15;100.00;61821.78;4971609;28;20054;-84
2023/10/27 11:06:27;;;;;;;25.70;11.30;;;;;;;-148.15;100.00;61821.78;4970389;28;20594;-84
2023/10/27 11:08:53;;;;;;;27.63;12.37;;;;;;;-148.15;100.00;61821.78;4973429;28;20289;-84
2023/10/27 11:11:20;;;;;;;32.10;13.32;;;;;;;-148.15;100.00;61821.78;4973442;28;20027;-82
2023/10/27 11:13:51;;;;;;;34.35;13.65;;;;;;;-148.15;100.00;61821.78;4971339;28;20066;-85
2023/10/27 11:16:26;;;;;;;32.78;14.18;;;;;;;-148.15;100.00;61821.78;4973630;28;20039;-82
2023/10/27 11:19:02;;;;;;;33.22;15.02;;;;;;;-148.15;100.00;61821.78;4967659;28;20089;-82
2023/10/27 11:21:34;;;;;;;33.83;14.53;;;;;;;-148.15;100.00;61821.78;4967595;28;20069;-82
2023/10/27 11:24:06;;;;;;;29.47;13.87;;;;;;;-148.15;100.00;61821.78;4967507;28;20348;-83
2023/10/27 11:26:42;;;;;;;25.80;13.10;;;;;;;-148.15;100.00;61821.78;4971216;28;20046;-82
2023/10/27 11:29:08;;;;;;;28.00;13.35;;;;;;;-148.15;100.00;61821.78;4972481;28;20549;-84
2023/10/27 11:31:39;;;;;;;24.70;13.45;;;;;;;-148.15;100.00;61821.78;4970452;28;20027;-84
2023/10/27 11:34:08;;;;;;;24.90;11.90;;;;;;;-148.15;100.00;61821.78;4971770;28;20030;-84
2023/10/27 11:36:35;;;;;;;23.87;11.90;;;;;;;-148.15;100.00;61821.78;4962016;28;20282;-85
2023/10/27 11:39:20;;;;;;;24.70;12.35;;;;;;;-148.15;100.00;61821.78;4954217;28;20151;-86
2023/10/27 11:42:03;;;;;;;19.70;11.75;;;;;;;-148.15;100.00;61821.78;4964528;28;20027;-85
2023/10/27 11:44:30;;;;;;;21.02;11.43;;;;;;;-148.15;100.00;61821.78;4973364;28;20081;-85
2023/10/27 11:46:57;;;;;;;17.02;9.63;;;;;;;-148.15;100.00;61821.78;4969770;28;20463;-85
2023/10/27 11:49:24;;;;;;;18.93;10.70;;;;;;;-148.15;100.00;61821.78;4971553;28;20026;-84
2023/10/27 11:51:52;;;;;;;21.52;10.32;;;;;;;-148.15;100.00;61821.78;4971541;28;20081;-85
2023/10/27 11:54:18;;;;;;;24.73;12.18;;;;;;;-148.15;100.00;61821.78;4970234;28;20055;-84
2023/10/27 11:56:44;;;;;;;20.40;10.98;;;;;;;-148.15;100.00;61821.78;4961714;28;20553;-84
2023/10/27 11:59:11;;;;;;;18.58;10.95;;;;;;;-148.15;100.00;61821.78;4962098;28;20067;-85
2023/10/27 12:01:37;;;;;;;21.97;11.23;;;;;;;-148.15;100.00;61821.78;4969598;28;20058;-85
2023/10/27 12:04:04;;;;;;;18.40;11.23;;;;;;;-148.15;100.00;61821.78;4969295;28;20294;-85
2023/10/27 12:06:30;;;;;;;16.85;9.90;;;;;;;-148.15;100.00;61821.78;4968875;28;20023;-84
2023/10/27 12:08:56;;;;;;;17.17;10.00;;;;;;;-148.15;100.00;61821.78;4973088;28;20082;-84
2023/10/27 12:11:21;;;;;;;18.63;10.23;;;;;;;-148.15;100.00;61821.78;4971555;28;20427;-84
2023/10/27 12:13:47;;;;;;;19.07;9.53;;;;;;;-148.15;100.00;61821.78;4971899;28;20030;-84
2023/10/27 12:16:13;;;;;;;19.92;9.57;;;;;;;-148.15;100.00;61821.78;4966910;28;20449;-84
2023/10/27 12:18:39;;;;;;;22.77;10.07;;;;;;;-148.15;100.00;61821.78;4966870;28;20553;-84
2023/10/27 12:21:04;;;;;;;14.87;9.70;;;;;;;-148.15;100.00;61821.78;4962572;28;20518;-84
2023/10/27 12:23:30;;;;;;;18.80;8.77;;;;;;;-148.15;100.00;61821.78;4964796;28;20031;-84
2023/10/27 12:26:00;;;;;;;15.47;8.70;;;;;;;-148.15;100.00;61821.78;4970591;28;20868;-85
2023/10/27 12:28:27;;;;;;;15.43;8.52;;;;;;;-148.15;100.00;61821.78;4970069;28;20189;-84
2023/10/27 12:30:54;;;;;;;16.33;8.50;;;;;;;-148.15;100.00;61821.78;4970606;28;20023;-85
2023/10/27 12:33:20;;;;;;;12.30;7.50;;;;;;;-148.15;100.00;61821.78;4968759;28;20030;-85
2023/10/27 12:35:48;;;;;;;15.47;6.23;;;;;;;-148.15;100.00;61821.78;4969590;28;20395;-84
2023/10/27 12:38:18;;;;;;;18.77;4.90;;;;;;;-148.15;100.00;61821.78;4970431;28;20027;-85
2023/10/27 12:40:44;;;;;;;9.93;4.47;;;;;;;-148.15;100.00;61821.78;4968442;28;20733;-84